Nearby METAR Reports

 

KBMG - Bloomington, Indiana, USA
Distance from station: SSE 11mi, 18km
Updated: Mon, 18-Feb-2019 6:53am EST
Light snow, Overcast
Light snow, Overcast
 Wind from W
Wind: W 12 mph , 19 km/h
Temperature: 30°F , -1°C
Wind Chill: 20°F , -7°C
Barometer: 30.08 inHg , 1018.6 hPa
Summary: Light Snow
Clouds: Overcast
Visibility: 7 miles , 11 km
Cloud details: Overcast 3900 ft
2019/02/18 11:53 KBMG 181153Z 28010KT 7SM -SN OVC039 M01/ A3008 RMK AO2 SNB29 SLP193 6//// 7//// T1011 PNO $
KGPC - Greencastle, Indiana, USA
Distance from station: NNW 24mi, 39km
Updated: Mon, 18-Feb-2019 7:15am EST
Overcast
Overcast
 Wind from calm
Wind: Calm
Temperature: 28°F , -2°C
Dew Point: 21°F , -6°C
Humidity: 74%
Barometer: 30.11 inHg , 1019.6 hPa
Clouds: Overcast
Visibility: 10 miles , 16 km
Cloud details: Mostly cloudy 1800 ft
Overcast 3100 ft
2019/02/18 12:15 KGPC 181215Z AUTO 00000KT 10SM BKN018 OVC031 M02/M06 A3011 RMK AO2
 
KHUF - Terre Haute, Indiana, USA
Distance from station: WNW 34mi, 54km
Updated: Mon, 18-Feb-2019 6:53am EST
Overcast
Overcast
 Wind from W
Wind: W 10 mph , 17 km/h
Temperature: 28°F , -2°C
Wind Chill: 19°F , -7°C
Dew Point: 21°F , -6°C
Humidity: 74%
Barometer: 30.14 inHg , 1020.7 hPa
Clouds: Overcast
Visibility: 10 miles , 16 km
Cloud details: Overcast 3600 ft
2019/02/18 11:53 KHUF 181153Z 28009KT 10SM OVC036 M02/M06 A3014 RMK AO2 SLP211 70003 T10171061 10000 21017 53030 $
KIND - Indianapolis, Indiana, USA
Distance from station: NE 36mi, 58km
Updated: Mon, 18-Feb-2019 6:54am EST
Overcast
Overcast
 Wind from W
Wind: W 12 mph , 19 km/h
Temperature: 28°F , -2°C
Wind Chill: 18°F , -8°C
Dew Point: 23°F , -5°C
Humidity: 80%
Barometer: 30.09 inHg , 1019 hPa
Clouds: Overcast
Visibility: 9 miles , 14 km
Cloud details: Mostly cloudy 2000 ft
Overcast 3000 ft
2019/02/18 11:54 KIND 181154Z 27010KT 9SM BKN020 OVC030 M02/M05 A3009 RMK AO2 SNB27E50 SLP196 P0000 60000 70002 T10221050 11006 21022 53028
 
KHFY - Indianapolis, Indiana, USA
Distance from station: NE 40mi, 65km
Updated: Mon, 18-Feb-2019 7:15am EST
Overcast
Overcast
 Wind from W
Wind: W 12 mph , 19 km/h
Temperature: 28°F , -2°C
Wind Chill: 18°F , -8°C
Dew Point: 23°F , -5°C
Humidity: 80%
Barometer: 30.09 inHg , 1019 hPa
Clouds: Overcast
Visibility: 10 miles , 16 km
Cloud details: Overcast 1800 ft
2019/02/18 12:15 KHFY 181215Z AUTO 27010KT 10SM OVC018 M02/M05 A3009 RMK AO2 T10231050
KBAK - Columbus/Balkala, Indiana, USA
Distance from station: E 43mi, 69km
Updated: Mon, 18-Feb-2019 6:45am EST
Light snow, Overcast
Light snow, Overcast
 Wind from WNW
Wind: WNW 12 mph , 19 km/h
Temperature: 30°F , -1°C
Wind Chill: 20°F , -7°C
Dew Point: 19°F , -7°C
Humidity: 64%
Barometer: 30.11 inHg , 1019.6 hPa
Summary: Light Snow
Clouds: Overcast
Cloud details: Overcast 3400 ft
2019/02/18 11:45 KBAK 181145Z 29010KT -SN OVC034 M01/M07 A3011
 
KEYE - Indianapolis, Indiana, USA
Distance from station: NNE 43mi, 69km
Updated: Mon, 18-Feb-2019 6:53am EST
Overcast
Overcast
 Wind from W
Wind: W 9 mph , 15 km/h, Gust: 17 mph , 28 km/h
Temperature: 28°F , -2°C
Wind Chill: 19°F , -7°C
Dew Point: 21°F , -6°C
Humidity: 74%
Barometer: 30.07 inHg , 1018.3 hPa
Clouds: Overcast
Visibility: 10 miles , 16 km
Cloud details: Overcast 2600 ft
2019/02/18 11:53 KEYE 181153Z AUTO 26008G15KT 10SM OVC026 M02/M06 A3007 RMK AO2 SLP192 70005 T10171056 11006 21017 53028
KDCY - Daviess County, Indiana, USA
Distance from station: SSW 47mi, 76km
Updated: Mon, 18-Feb-2019 7:15am EST
Overcast
Overcast
 Wind from W
Wind: W 9 mph , 15 km/h
Temperature: 32°F , 0°C
Wind Chill: 24°F , -4°C
Dew Point: 25°F , -4°C
Humidity: 75%
Barometer: 30.17 inHg , 1021.7 hPa
Clouds: Overcast
Visibility: 10 miles , 16 km
Cloud details: Partly cloudy 2100 ft
Overcast 3000 ft
2019/02/18 12:15 KDCY 181215Z AUTO 27008KT 10SM SCT021 OVC030 00/M04 A3017 RMK AO2 T10031040
 
KCFJ - Crawfordsville, Indiana, USA
Distance from station: NNW 49mi, 78km
Updated: Mon, 18-Feb-2019 7:15am EST
Overcast
Overcast
 Wind from W
Wind: W 12 mph , 19 km/h
Temperature: 25°F , -4°C
Wind Chill: 14°F , -10°C
Dew Point: 25°F , -4°C
Humidity: 100%
Barometer: 30.10 inHg , 1019.3 hPa
Clouds: Overcast
Visibility: 10 miles , 16 km
Cloud details: Overcast 1200 ft
2019/02/18 12:15 KCFJ 181215Z AUTO 26010KT 10SM OVC012 M04/M04 A3010 RMK AO2 T10361042